KOLZ

Details ICAO KOLZ
Name OELWEIN MUNI
Region United States
Timezone America/Chicago (UTC-6.0)
Plans Departing 0
Arriving 0
Stats Elevation 1,076 ft / 328 m (AMSL)
Location 42.681174° -91.974326°
Runways 2
Magnetic Variation 0.585° W
Sunrise 2017-12-18 13:34:42 UTC / 2017-12-18 07:34:42 Local
Sunset 2017-12-18 22:37:16 UTC / 2017-12-18 16:37:16 Local
Advertisement - Login to hide

Runways

ID Width Length Bearing (true) Bearing (mag) Surface Threshold Offset Overrun Length
13 75 ft / 23 m 3,998 ft / 1,219 m 134.62° 135.20° Concrete 0 ft / 0 m 100 ft / 30 m
18 85 ft / 26 m 1,724 ft / 525 m 182.45° 183.03° Grass 0 ft / 0 m 0 ft / 0 m
31 75 ft / 23 m 3,998 ft / 1,219 m 314.63° 315.21° Concrete 0 ft / 0 m 0 ft / 0 m
36 85 ft / 26 m 1,724 ft / 525 m 2.45° 3.03° Grass 0 ft / 0 m 0 ft / 0 m

Map

Weather


0- 5 10 15 20 25 30 35+ Temperature / ° C

Clouds and Precipitation
Forecast for 2017-12-18 18:00 UTC. Updated 3 minutes ago

Ground ~20,000 ft ~40,000 ft Winds

METAR

KOLZ 181515Z AUTO 22007KT 3SM BR FEW005 M02/M02 A2992 RMK AO2

TAF

Not found

Frequencies

Recorded 119.67 MHz AWOS 3
Approach 118.90 MHz WATERLOO APP/DEP
Unicom 122.80 MHz CTAF/UNICOM
Warning: Do not use this data for real-world aviation or navigation. No guarantee of current accuracy is given.